sensor_id;sensor_type;location;lat;lon;timestamp;P1;durP1;ratioP1;P2;durP2;ratioP2
83139;SDS011;73027;54.208;19.128;2023-11-21T00:01:52;8.35;;;2.72;;
83139;SDS011;73027;54.208;19.128;2023-11-21T00:04:17;7.97;;;2.65;;
83139;SDS011;73027;54.208;19.128;2023-11-21T00:06:42;7.45;;;2.38;;
83139;SDS011;73027;54.208;19.128;2023-11-21T00:09:08;7.55;;;2.92;;
83139;SDS011;73027;54.208;19.128;2023-11-21T00:11:33;6.88;;;2.60;;
83139;SDS011;73027;54.208;19.128;2023-11-21T00:13:59;7.05;;;2.55;;
83139;SDS011;73027;54.208;19.128;2023-11-21T00:16:24;10.20;;;3.00;;
83139;SDS011;73027;54.208;19.128;2023-11-21T00:18:50;7.55;;;2.92;;
83139;SDS011;73027;54.208;19.128;2023-11-21T00:21:16;7.13;;;2.63;;
83139;SDS011;73027;54.208;19.128;2023-11-21T00:23:41;8.38;;;2.53;;
83139;SDS011;73027;54.208;19.128;2023-11-21T00:26:07;10.73;;;3.40;;
83139;SDS011;73027;54.208;19.128;2023-11-21T00:28:32;7.38;;;2.78;;
83139;SDS011;73027;54.208;19.128;2023-11-21T00:30:58;8.27;;;2.92;;
83139;SDS011;73027;54.208;19.128;2023-11-21T00:33:23;7.03;;;2.53;;
83139;SDS011;73027;54.208;19.128;2023-11-21T00:35:50;8.07;;;2.80;;
83139;SDS011;73027;54.208;19.128;2023-11-21T00:38:15;9.50;;;2.67;;
83139;SDS011;73027;54.208;19.128;2023-11-21T00:40:44;7.65;;;2.20;;
83139;SDS011;73027;54.208;19.128;2023-11-21T00:43:09;6.68;;;2.20;;
83139;SDS011;73027;54.208;19.128;2023-11-21T00:45:35;6.72;;;2.33;;
83139;SDS011;73027;54.208;19.128;2023-11-21T00:48:02;8.90;;;2.83;;
83139;SDS011;73027;54.208;19.128;2023-11-21T00:50:29;7.50;;;2.55;;
83139;SDS011;73027;54.208;19.128;2023-11-21T00:52:55;6.78;;;2.47;;
83139;SDS011;73027;54.208;19.128;2023-11-21T00:55:21;8.95;;;2.40;;
83139;SDS011;73027;54.208;19.128;2023-11-21T00:57:46;8.80;;;2.70;;
83139;SDS011;73027;54.208;19.128;2023-11-21T01:00:12;8.00;;;2.40;;
83139;SDS011;73027;54.208;19.128;2023-11-21T01:02:43;6.50;;;2.22;;
83139;SDS011;73027;54.208;19.128;2023-11-21T01:05:12;8.23;;;2.58;;
83139;SDS011;73027;54.208;19.128;2023-11-21T01:07:38;6.90;;;2.30;;
83139;SDS011;73027;54.208;19.128;2023-11-21T01:10:03;7.97;;;2.35;;
83139;SDS011;73027;54.208;19.128;2023-11-21T01:12:32;7.90;;;2.22;;
83139;SDS011;73027;54.208;19.128;2023-11-21T01:15:00;5.80;;;1.95;;
83139;SDS011;73027;54.208;19.128;2023-11-21T01:17:25;7.13;;;2.28;;
83139;SDS011;73027;54.208;19.128;2023-11-21T01:19:52;6.18;;;1.60;;
83139;SDS011;73027;54.208;19.128;2023-11-21T01:22:17;7.47;;;2.70;;
83139;SDS011;73027;54.208;19.128;2023-11-21T01:24:45;7.50;;;2.35;;
83139;SDS011;73027;54.208;19.128;2023-11-21T01:27:10;6.03;;;2.30;;
83139;SDS011;73027;54.208;19.128;2023-11-21T01:29:35;6.68;;;2.28;;
83139;SDS011;73027;54.208;19.128;2023-11-21T01:32:02;6.68;;;1.98;;
83139;SDS011;73027;54.208;19.128;2023-11-21T01:34:28;7.55;;;2.20;;
83139;SDS011;73027;54.208;19.128;2023-11-21T01:36:53;6.30;;;1.92;;
83139;SDS011;73027;54.208;19.128;2023-11-21T01:39:19;7.18;;;2.40;;
83139;SDS011;73027;54.208;19.128;2023-11-21T01:41:49;6.70;;;2.13;;
83139;SDS011;73027;54.208;19.128;2023-11-21T01:44:15;4.22;;;1.50;;
83139;SDS011;73027;54.208;19.128;2023-11-21T01:46:42;7.95;;;2.20;;
83139;SDS011;73027;54.208;19.128;2023-11-21T01:49:07;7.05;;;2.30;;
83139;SDS011;73027;54.208;19.128;2023-11-21T01:51:38;6.78;;;2.17;;
83139;SDS011;73027;54.208;19.128;2023-11-21T01:54:04;5.72;;;2.10;;
83139;SDS011;73027;54.208;19.128;2023-11-21T01:56:30;8.57;;;2.20;;
83139;SDS011;73027;54.208;19.128;2023-11-21T01:58:56;5.15;;;1.70;;
83139;SDS011;73027;54.208;19.128;2023-11-21T02:01:22;5.88;;;1.77;;
83139;SDS011;73027;54.208;19.128;2023-11-21T02:03:47;6.78;;;2.17;;
83139;SDS011;73027;54.208;19.128;2023-11-21T02:06:13;6.35;;;2.13;;
83139;SDS011;73027;54.208;19.128;2023-11-21T02:08:38;6.53;;;1.83;;
83139;SDS011;73027;54.208;19.128;2023-11-21T02:11:04;6.50;;;2.20;;
83139;SDS011;73027;54.208;19.128;2023-11-21T02:13:31;10.35;;;2.05;;
83139;SDS011;73027;54.208;19.128;2023-11-21T02:15:56;5.75;;;1.75;;
83139;SDS011;73027;54.208;19.128;2023-11-21T02:18:23;6.57;;;1.60;;
83139;SDS011;73027;54.208;19.128;2023-11-21T02:20:48;5.22;;;1.65;;
83139;SDS011;73027;54.208;19.128;2023-11-21T02:23:14;4.80;;;1.45;;
83139;SDS011;73027;54.208;19.128;2023-11-21T02:25:39;6.13;;;1.73;;
83139;SDS011;73027;54.208;19.128;2023-11-21T02:28:05;5.63;;;1.80;;
83139;SDS011;73027;54.208;19.128;2023-11-21T02:30:31;5.70;;;1.90;;
83139;SDS011;73027;54.208;19.128;2023-11-21T02:32:57;5.45;;;1.92;;
83139;SDS011;73027;54.208;19.128;2023-11-21T02:35:23;6.15;;;1.75;;
83139;SDS011;73027;54.208;19.128;2023-11-21T02:37:51;6.68;;;2.53;;
83139;SDS011;73027;54.208;19.128;2023-11-21T02:40:16;6.80;;;2.42;;
83139;SDS011;73027;54.208;19.128;2023-11-21T02:42:43;8.98;;;3.97;;
83139;SDS011;73027;54.208;19.128;2023-11-21T02:45:09;7.90;;;2.45;;
83139;SDS011;73027;54.208;19.128;2023-11-21T02:47:44;8.77;;;2.20;;
83139;SDS011;73027;54.208;19.128;2023-11-21T02:50:10;6.43;;;1.80;;
83139;SDS011;73027;54.208;19.128;2023-11-21T02:52:35;6.03;;;1.85;;
83139;SDS011;73027;54.208;19.128;2023-11-21T02:55:02;6.40;;;2.00;;
83139;SDS011;73027;54.208;19.128;2023-11-21T02:57:28;5.82;;;2.08;;
83139;SDS011;73027;54.208;19.128;2023-11-21T02:59:53;7.35;;;2.30;;
83139;SDS011;73027;54.208;19.128;2023-11-21T03:02:19;5.78;;;1.83;;
83139;SDS011;73027;54.208;19.128;2023-11-21T03:04:45;8.75;;;2.10;;
83139;SDS011;73027;54.208;19.128;2023-11-21T03:07:10;8.18;;;2.17;;
83139;SDS011;73027;54.208;19.128;2023-11-21T03:09:35;7.65;;;1.77;;
83139;SDS011;73027;54.208;19.128;2023-11-21T03:12:01;6.40;;;1.98;;
83139;SDS011;73027;54.208;19.128;2023-11-21T03:14:27;6.15;;;2.03;;
83139;SDS011;73027;54.208;19.128;2023-11-21T03:16:52;9.30;;;3.30;;
83139;SDS011;73027;54.208;19.128;2023-11-21T03:19:17;7.45;;;2.10;;
83139;SDS011;73027;54.208;19.128;2023-11-21T03:21:43;6.28;;;2.10;;
83139;SDS011;73027;54.208;19.128;2023-11-21T03:24:08;5.43;;;1.80;;
83139;SDS011;73027;54.208;19.128;2023-11-21T03:26:33;5.78;;;1.60;;
83139;SDS011;73027;54.208;19.128;2023-11-21T03:28:59;5.88;;;1.85;;
83139;SDS011;73027;54.208;19.128;2023-11-21T03:31:24;6.03;;;2.10;;
83139;SDS011;73027;54.208;19.128;2023-11-21T03:33:50;5.28;;;2.03;;
83139;SDS011;73027;54.208;19.128;2023-11-21T03:36:15;7.43;;;2.17;;
83139;SDS011;73027;54.208;19.128;2023-11-21T03:38:41;6.65;;;1.98;;
83139;SDS011;73027;54.208;19.128;2023-11-21T03:41:07;7.03;;;2.53;;
83139;SDS011;73027;54.208;19.128;2023-11-21T03:43:35;7.13;;;1.92;;
83139;SDS011;73027;54.208;19.128;2023-11-21T03:46:01;6.28;;;2.10;;
83139;SDS011;73027;54.208;19.128;2023-11-21T03:48:26;7.50;;;2.17;;
83139;SDS011;73027;54.208;19.128;2023-11-21T03:50:52;6.82;;;2.40;;
83139;SDS011;73027;54.208;19.128;2023-11-21T03:53:17;7.25;;;2.30;;
83139;SDS011;73027;54.208;19.128;2023-11-21T03:55:43;7.55;;;2.50;;
83139;SDS011;73027;54.208;19.128;2023-11-21T03:58:08;8.35;;;3.60;;
83139;SDS011;73027;54.208;19.128;2023-11-21T04:00:33;7.95;;;3.50;;
83139;SDS011;73027;54.208;19.128;2023-11-21T04:02:59;5.03;;;1.35;;
83139;SDS011;73027;54.208;19.128;2023-11-21T04:05:24;12.10;;;4.25;;
83139;SDS011;73027;54.208;19.128;2023-11-21T04:07:50;9.68;;;3.15;;
83139;SDS011;73027;54.208;19.128;2023-11-21T04:10:18;8.73;;;3.25;;
83139;SDS011;73027;54.208;19.128;2023-11-21T04:12:43;6.10;;;1.85;;
83139;SDS011;73027;54.208;19.128;2023-11-21T04:15:10;7.13;;;2.45;;
83139;SDS011;73027;54.208;19.128;2023-11-21T04:17:35;9.52;;;2.35;;
83139;SDS011;73027;54.208;19.128;2023-11-21T04:20:02;9.20;;;1.85;;
83139;SDS011;73027;54.208;19.128;2023-11-21T04:22:33;9.25;;;3.08;;
83139;SDS011;73027;54.208;19.128;2023-11-21T04:24:58;13.52;;;5.50;;
83139;SDS011;73027;54.208;19.128;2023-11-21T04:27:26;8.70;;;3.38;;
83139;SDS011;73027;54.208;19.128;2023-11-21T04:29:51;7.05;;;2.53;;
83139;SDS011;73027;54.208;19.128;2023-11-21T04:32:16;6.45;;;2.00;;
83139;SDS011;73027;54.208;19.128;2023-11-21T04:34:42;5.97;;;1.90;;
83139;SDS011;73027;54.208;19.128;2023-11-21T04:37:07;10.00;;;2.63;;
83139;SDS011;73027;54.208;19.128;2023-11-21T04:39:35;5.60;;;2.15;;
83139;SDS011;73027;54.208;19.128;2023-11-21T04:42:00;6.38;;;2.08;;
83139;SDS011;73027;54.208;19.128;2023-11-21T04:44:26;7.90;;;2.40;;
83139;SDS011;73027;54.208;19.128;2023-11-21T04:46:51;5.82;;;1.83;;
83139;SDS011;73027;54.208;19.128;2023-11-21T04:49:17;6.85;;;2.30;;
83139;SDS011;73027;54.208;19.128;2023-11-21T04:51:42;8.20;;;2.47;;
83139;SDS011;73027;54.208;19.128;2023-11-21T04:54:08;9.75;;;2.70;;
83139;SDS011;73027;54.208;19.128;2023-11-21T04:56:34;8.20;;;2.53;;
83139;SDS011;73027;54.208;19.128;2023-11-21T04:58:59;8.45;;;2.03;;
83139;SDS011;73027;54.208;19.128;2023-11-21T05:01:24;6.43;;;1.90;;
83139;SDS011;73027;54.208;19.128;2023-11-21T05:03:50;7.25;;;2.22;;
83139;SDS011;73027;54.208;19.128;2023-11-21T05:06:15;7.13;;;2.13;;
83139;SDS011;73027;54.208;19.128;2023-11-21T05:08:41;7.57;;;2.35;;
83139;SDS011;73027;54.208;19.128;2023-11-21T05:11:07;8.02;;;2.20;;
83139;SDS011;73027;54.208;19.128;2023-11-21T05:13:34;6.22;;;1.85;;
83139;SDS011;73027;54.208;19.128;2023-11-21T05:15:59;4.43;;;1.33;;
83139;SDS011;73027;54.208;19.128;2023-11-21T05:18:25;7.18;;;2.22;;
83139;SDS011;73027;54.208;19.128;2023-11-21T05:20:55;5.95;;;2.10;;
83139;SDS011;73027;54.208;19.128;2023-11-21T05:23:21;5.78;;;1.70;;
83139;SDS011;73027;54.208;19.128;2023-11-21T05:25:46;8.23;;;2.17;;
83139;SDS011;73027;54.208;19.128;2023-11-21T05:28:12;8.73;;;2.58;;
83139;SDS011;73027;54.208;19.128;2023-11-21T05:33:06;11.93;;;4.30;;
83139;SDS011;73027;54.208;19.128;2023-11-21T05:35:32;9.13;;;3.70;;
83139;SDS011;73027;54.208;19.128;2023-11-21T05:37:57;9.05;;;3.97;;
83139;SDS011;73027;54.208;19.128;2023-11-21T05:40:22;5.88;;;1.70;;
83139;SDS011;73027;54.208;19.128;2023-11-21T05:42:48;10.30;;;2.90;;
83139;SDS011;73027;54.208;19.128;2023-11-21T05:45:13;8.10;;;2.67;;
83139;SDS011;73027;54.208;19.128;2023-11-21T05:47:41;7.95;;;2.72;;
83139;SDS011;73027;54.208;19.128;2023-11-21T05:50:11;8.25;;;2.70;;
83139;SDS011;73027;54.208;19.128;2023-11-21T05:52:43;7.82;;;3.00;;
83139;SDS011;73027;54.208;19.128;2023-11-21T05:55:09;8.25;;;2.42;;
83139;SDS011;73027;54.208;19.128;2023-11-21T05:57:38;16.70;;;5.47;;
83139;SDS011;73027;54.208;19.128;2023-11-21T06:00:08;9.48;;;3.25;;
83139;SDS011;73027;54.208;19.128;2023-11-21T06:03:01;10.50;;;3.17;;
83139;SDS011;73027;54.208;19.128;2023-11-21T06:05:27;8.88;;;3.50;;
83139;SDS011;73027;54.208;19.128;2023-11-21T06:07:53;9.30;;;2.50;;
83139;SDS011;73027;54.208;19.128;2023-11-21T06:10:22;8.40;;;3.28;;
83139;SDS011;73027;54.208;19.128;2023-11-21T06:12:48;11.07;;;4.03;;
83139;SDS011;73027;54.208;19.128;2023-11-21T06:15:14;19.13;;;4.68;;
83139;SDS011;73027;54.208;19.128;2023-11-21T06:17:40;10.38;;;2.53;;
83139;SDS011;73027;54.208;19.128;2023-11-21T06:20:07;14.43;;;4.00;;
83139;SDS011;73027;54.208;19.128;2023-11-21T06:22:41;10.38;;;2.78;;
83139;SDS011;73027;54.208;19.128;2023-11-21T06:25:07;12.63;;;3.72;;
83139;SDS011;73027;54.208;19.128;2023-11-21T06:27:34;12.20;;;2.95;;
83139;SDS011;73027;54.208;19.128;2023-11-21T06:30:02;19.55;;;2.97;;
83139;SDS011;73027;54.208;19.128;2023-11-21T06:32:28;7.20;;;2.60;;
83139;SDS011;73027;54.208;19.128;2023-11-21T06:34:55;12.13;;;4.72;;
83139;SDS011;73027;54.208;19.128;2023-11-21T06:37:20;14.48;;;4.43;;
83139;SDS011;73027;54.208;19.128;2023-11-21T06:39:48;26.67;;;6.53;;
83139;SDS011;73027;54.208;19.128;2023-11-21T06:42:14;21.33;;;7.57;;
83139;SDS011;73027;54.208;19.128;2023-11-21T06:44:40;21.58;;;9.13;;
83139;SDS011;73027;54.208;19.128;2023-11-21T06:47:06;59.20;;;30.27;;
83139;SDS011;73027;54.208;19.128;2023-11-21T06:49:32;41.35;;;17.80;;
83139;SDS011;73027;54.208;19.128;2023-11-21T06:51:58;37.85;;;7.45;;
83139;SDS011;73027;54.208;19.128;2023-11-21T06:54:24;20.95;;;5.60;;
83139;SDS011;73027;54.208;19.128;2023-11-21T06:56:51;10.38;;;3.60;;
83139;SDS011;73027;54.208;19.128;2023-11-21T06:59:18;6.85;;;2.17;;
83139;SDS011;73027;54.208;19.128;2023-11-21T07:01:43;7.13;;;2.00;;
83139;SDS011;73027;54.208;19.128;2023-11-21T07:04:09;11.52;;;2.45;;
83139;SDS011;73027;54.208;19.128;2023-11-21T07:06:35;9.63;;;2.42;;
83139;SDS011;73027;54.208;19.128;2023-11-21T07:09:00;8.45;;;2.92;;
83139;SDS011;73027;54.208;19.128;2023-11-21T07:11:26;8.07;;;1.85;;
83139;SDS011;73027;54.208;19.128;2023-11-21T07:13:52;9.88;;;1.95;;
83139;SDS011;73027;54.208;19.128;2023-11-21T07:16:18;14.45;;;3.33;;
83139;SDS011;73027;54.208;19.128;2023-11-21T07:18:44;28.00;;;6.13;;
83139;SDS011;73027;54.208;19.128;2023-11-21T07:21:09;9.65;;;2.35;;
83139;SDS011;73027;54.208;19.128;2023-11-21T07:23:37;13.98;;;3.05;;
83139;SDS011;73027;54.208;19.128;2023-11-21T07:26:02;8.43;;;2.35;;
83139;SDS011;73027;54.208;19.128;2023-11-21T07:28:28;11.07;;;2.50;;
83139;SDS011;73027;54.208;19.128;2023-11-21T07:30:55;14.07;;;3.88;;
83139;SDS011;73027;54.208;19.128;2023-11-21T07:33:20;16.33;;;5.18;;
83139;SDS011;73027;54.208;19.128;2023-11-21T07:35:46;24.45;;;6.45;;
83139;SDS011;73027;54.208;19.128;2023-11-21T07:38:12;16.13;;;5.45;;
83139;SDS011;73027;54.208;19.128;2023-11-21T07:40:38;8.00;;;3.15;;
83139;SDS011;73027;54.208;19.128;2023-11-21T07:43:03;10.75;;;2.70;;
83139;SDS011;73027;54.208;19.128;2023-11-21T07:45:28;9.18;;;2.47;;
83139;SDS011;73027;54.208;19.128;2023-11-21T07:47:54;10.85;;;3.20;;
83139;SDS011;73027;54.208;19.128;2023-11-21T07:50:20;14.20;;;3.60;;
83139;SDS011;73027;54.208;19.128;2023-11-21T07:52:47;14.15;;;4.22;;
83139;SDS011;73027;54.208;19.128;2023-11-21T07:55:14;9.30;;;3.17;;
83139;SDS011;73027;54.208;19.128;2023-11-21T07:57:40;9.90;;;2.47;;
83139;SDS011;73027;54.208;19.128;2023-11-21T08:00:06;6.55;;;1.75;;
83139;SDS011;73027;54.208;19.128;2023-11-21T08:02:34;4.50;;;1.40;;
83139;SDS011;73027;54.208;19.128;2023-11-21T08:04:59;11.95;;;3.50;;
83139;SDS011;73027;54.208;19.128;2023-11-21T08:07:25;16.33;;;3.92;;
83139;SDS011;73027;54.208;19.128;2023-11-21T08:09:51;11.35;;;2.97;;
83139;SDS011;73027;54.208;19.128;2023-11-21T08:12:17;10.93;;;3.78;;
83139;SDS011;73027;54.208;19.128;2023-11-21T08:14:43;10.52;;;3.20;;
83139;SDS011;73027;54.208;19.128;2023-11-21T08:17:09;8.35;;;2.83;;
83139;SDS011;73027;54.208;19.128;2023-11-21T08:19:35;7.00;;;2.03;;
83139;SDS011;73027;54.208;19.128;2023-11-21T08:22:02;7.00;;;2.00;;
83139;SDS011;73027;54.208;19.128;2023-11-21T08:24:28;10.10;;;2.88;;
83139;SDS011;73027;54.208;19.128;2023-11-21T08:26:53;6.45;;;2.38;;
83139;SDS011;73027;54.208;19.128;2023-11-21T08:29:19;7.70;;;2.15;;
83139;SDS011;73027;54.208;19.128;2023-11-21T08:31:44;7.97;;;2.67;;
83139;SDS011;73027;54.208;19.128;2023-11-21T08:34:12;8.95;;;2.70;;
83139;SDS011;73027;54.208;19.128;2023-11-21T08:36:41;9.13;;;2.97;;
83139;SDS011;73027;54.208;19.128;2023-11-21T08:39:08;10.65;;;3.53;;
83139;SDS011;73027;54.208;19.128;2023-11-21T08:41:34;13.75;;;3.42;;
83139;SDS011;73027;54.208;19.128;2023-11-21T08:43:59;7.93;;;1.90;;
83139;SDS011;73027;54.208;19.128;2023-11-21T08:46:25;10.93;;;3.47;;
83139;SDS011;73027;54.208;19.128;2023-11-21T08:48:51;5.03;;;1.33;;
83139;SDS011;73027;54.208;19.128;2023-11-21T08:51:17;14.43;;;2.47;;
83139;SDS011;73027;54.208;19.128;2023-11-21T08:53:43;5.75;;;1.80;;
83139;SDS011;73027;54.208;19.128;2023-11-21T08:56:12;6.93;;;2.80;;
83139;SDS011;73027;54.208;19.128;2023-11-21T08:58:39;6.70;;;2.25;;
83139;SDS011;73027;54.208;19.128;2023-11-21T09:01:04;6.22;;;2.17;;
83139;SDS011;73027;54.208;19.128;2023-11-21T09:03:32;7.75;;;2.55;;
83139;SDS011;73027;54.208;19.128;2023-11-21T09:05:59;5.32;;;2.00;;
83139;SDS011;73027;54.208;19.128;2023-11-21T09:08:24;5.97;;;1.65;;
83139;SDS011;73027;54.208;19.128;2023-11-21T09:10:50;11.40;;;2.72;;
83139;SDS011;73027;54.208;19.128;2023-11-21T09:13:15;12.40;;;2.70;;
83139;SDS011;73027;54.208;19.128;2023-11-21T09:15:43;7.03;;;2.53;;
83139;SDS011;73027;54.208;19.128;2023-11-21T09:18:11;6.88;;;2.47;;
83139;SDS011;73027;54.208;19.128;2023-11-21T09:20:40;7.63;;;2.70;;
83139;SDS011;73027;54.208;19.128;2023-11-21T09:23:06;4.60;;;1.92;;
83139;SDS011;73027;54.208;19.128;2023-11-21T09:25:32;9.00;;;1.83;;
83139;SDS011;73027;54.208;19.128;2023-11-21T09:27:57;9.95;;;3.33;;
83139;SDS011;73027;54.208;19.128;2023-11-21T09:30:23;7.30;;;2.53;;
83139;SDS011;73027;54.208;19.128;2023-11-21T09:32:50;7.15;;;2.40;;
83139;SDS011;73027;54.208;19.128;2023-11-21T09:35:18;10.75;;;3.22;;
83139;SDS011;73027;54.208;19.128;2023-11-21T09:37:44;13.80;;;2.85;;
83139;SDS011;73027;54.208;19.128;2023-11-21T09:40:10;24.92;;;4.50;;
83139;SDS011;73027;54.208;19.128;2023-11-21T09:42:39;22.88;;;3.67;;
83139;SDS011;73027;54.208;19.128;2023-11-21T09:47:54;36.42;;;4.13;;
83139;SDS011;73027;54.208;19.128;2023-11-21T09:50:23;21.33;;;4.10;;
83139;SDS011;73027;54.208;19.128;2023-11-21T09:52:54;18.70;;;4.10;;
83139;SDS011;73027;54.208;19.128;2023-11-21T09:55:23;12.90;;;3.33;;
83139;SDS011;73027;54.208;19.128;2023-11-21T09:57:55;9.93;;;1.95;;
83139;SDS011;73027;54.208;19.128;2023-11-21T10:00:21;21.17;;;2.72;;
83139;SDS011;73027;54.208;19.128;2023-11-21T10:02:52;10.27;;;2.67;;
83139;SDS011;73027;54.208;19.128;2023-11-21T10:05:18;5.38;;;1.77;;
83139;SDS011;73027;54.208;19.128;2023-11-21T10:07:47;7.78;;;2.10;;
83139;SDS011;73027;54.208;19.128;2023-11-21T10:10:13;6.00;;;1.77;;
83139;SDS011;73027;54.208;19.128;2023-11-21T10:12:42;13.80;;;2.53;;
83139;SDS011;73027;54.208;19.128;2023-11-21T10:15:13;39.95;;;4.18;;
83139;SDS011;73027;54.208;19.128;2023-11-21T10:17:41;20.42;;;2.65;;
83139;SDS011;73027;54.208;19.128;2023-11-21T10:20:13;11.07;;;2.20;;
83139;SDS011;73027;54.208;19.128;2023-11-21T10:22:42;14.32;;;2.10;;
83139;SDS011;73027;54.208;19.128;2023-11-21T10:25:12;16.50;;;2.67;;
83139;SDS011;73027;54.208;19.128;2023-11-21T10:27:41;29.88;;;3.25;;
83139;SDS011;73027;54.208;19.128;2023-11-21T10:30:07;5.45;;;1.17;;
83139;SDS011;73027;54.208;19.128;2023-11-21T10:32:36;4.50;;;1.58;;
83139;SDS011;73027;54.208;19.128;2023-11-21T10:35:03;5.97;;;1.67;;
83139;SDS011;73027;54.208;19.128;2023-11-21T10:37:34;5.80;;;1.20;;
83139;SDS011;73027;54.208;19.128;2023-11-21T10:40:00;11.90;;;2.05;;
83139;SDS011;73027;54.208;19.128;2023-11-21T10:42:25;13.32;;;2.22;;
83139;SDS011;73027;54.208;19.128;2023-11-21T10:44:52;15.98;;;2.33;;
83139;SDS011;73027;54.208;19.128;2023-11-21T10:47:18;18.13;;;3.22;;
83139;SDS011;73027;54.208;19.128;2023-11-21T10:49:44;20.95;;;2.85;;
83139;SDS011;73027;54.208;19.128;2023-11-21T10:52:13;10.30;;;2.03;;
83139;SDS011;73027;54.208;19.128;2023-11-21T10:54:42;6.85;;;1.75;;
83139;SDS011;73027;54.208;19.128;2023-11-21T10:57:11;10.77;;;1.70;;
83139;SDS011;73027;54.208;19.128;2023-11-21T10:59:42;15.95;;;2.70;;
83139;SDS011;73027;54.208;19.128;2023-11-21T11:02:24;17.50;;;3.58;;
83139;SDS011;73027;54.208;19.128;2023-11-21T11:04:53;7.05;;;2.22;;
83139;SDS011;73027;54.208;19.128;2023-11-21T11:07:21;15.15;;;3.63;;
83139;SDS011;73027;54.208;19.128;2023-11-21T11:09:51;8.55;;;2.25;;
83139;SDS011;73027;54.208;19.128;2023-11-21T11:12:17;9.45;;;2.83;;
83139;SDS011;73027;54.208;19.128;2023-11-21T11:14:44;9.07;;;2.53;;
83139;SDS011;73027;54.208;19.128;2023-11-21T11:17:10;11.50;;;1.20;;
83139;SDS011;73027;54.208;19.128;2023-11-21T11:19:41;17.23;;;2.10;;
83139;SDS011;73027;54.208;19.128;2023-11-21T11:27:58;22.40;;;2.85;;
83139;SDS011;73027;54.208;19.128;2023-11-21T11:36:36;9.20;;;4.40;;
83139;SDS011;73027;54.208;19.128;2023-11-21T11:38:57;8.23;;;1.85;;
83139;SDS011;73027;54.208;19.128;2023-11-21T11:41:24;22.67;;;7.18;;
83139;SDS011;73027;54.208;19.128;2023-11-21T11:46:16;4.78;;;1.65;;
83139;SDS011;73027;54.208;19.128;2023-11-21T11:48:43;15.45;;;4.82;;
83139;SDS011;73027;54.208;19.128;2023-11-21T11:51:14;25.40;;;7.70;;
83139;SDS011;73027;54.208;19.128;2023-11-21T11:53:42;58.17;;;16.67;;
83139;SDS011;73027;54.208;19.128;2023-11-21T11:59:00;121.95;;;29.40;;
83139;SDS011;73027;54.208;19.128;2023-11-21T12:01:34;62.35;;;15.77;;
83139;SDS011;73027;54.208;19.128;2023-11-21T12:06:45;82.90;;;21.60;;
83139;SDS011;73027;54.208;19.128;2023-11-21T12:09:17;65.00;;;18.15;;
83139;SDS011;73027;54.208;19.128;2023-11-21T12:11:45;80.60;;;21.98;;
83139;SDS011;73027;54.208;19.128;2023-11-21T12:14:11;54.47;;;17.52;;
83139;SDS011;73027;54.208;19.128;2023-11-21T12:16:38;28.33;;;11.68;;
83139;SDS011;73027;54.208;19.128;2023-11-21T12:19:04;31.02;;;12.65;;
83139;SDS011;73027;54.208;19.128;2023-11-21T12:21:30;27.50;;;14.50;;
83139;SDS011;73027;54.208;19.128;2023-11-21T12:23:57;9.73;;;4.15;;
83139;SDS011;73027;54.208;19.128;2023-11-21T12:26:23;8.20;;;3.33;;
83139;SDS011;73027;54.208;19.128;2023-11-21T12:28:55;20.92;;;8.43;;
83139;SDS011;73027;54.208;19.128;2023-11-21T12:31:23;24.60;;;8.02;;
83139;SDS011;73027;54.208;19.128;2023-11-21T12:33:49;68.18;;;12.13;;
83139;SDS011;73027;54.208;19.128;2023-11-21T12:36:15;24.80;;;8.27;;
83139;SDS011;73027;54.208;19.128;2023-11-21T12:38:41;85.72;;;25.17;;
83139;SDS011;73027;54.208;19.128;2023-11-21T12:41:07;61.35;;;15.57;;
83139;SDS011;73027;54.208;19.128;2023-11-21T12:43:33;51.05;;;32.72;;
83139;SDS011;73027;54.208;19.128;2023-11-21T12:48:41;90.15;;;34.85;;
83139;SDS011;73027;54.208;19.128;2023-11-21T12:51:10;24.50;;;5.47;;
83139;SDS011;73027;54.208;19.128;2023-11-21T12:53:37;9.93;;;2.83;;
83139;SDS011;73027;54.208;19.128;2023-11-21T12:56:07;6.10;;;2.22;;
83139;SDS011;73027;54.208;19.128;2023-11-21T12:58:34;10.13;;;2.42;;
83139;SDS011;73027;54.208;19.128;2023-11-21T13:01:01;12.20;;;4.55;;
83139;SDS011;73027;54.208;19.128;2023-11-21T13:03:29;7.85;;;2.60;;
83139;SDS011;73027;54.208;19.128;2023-11-21T13:05:55;6.10;;;2.63;;
83139;SDS011;73027;54.208;19.128;2023-11-21T13:08:22;7.40;;;3.50;;
83139;SDS011;73027;54.208;19.128;2023-11-21T13:10:51;15.30;;;9.80;;
83139;SDS011;73027;54.208;19.128;2023-11-21T13:13:19;17.30;;;11.82;;
83139;SDS011;73027;54.208;19.128;2023-11-21T13:15:48;7.30;;;3.08;;
83139;SDS011;73027;54.208;19.128;2023-11-21T13:18:15;8.10;;;4.43;;
83139;SDS011;73027;54.208;19.128;2023-11-21T13:20:42;8.45;;;2.85;;
83139;SDS011;73027;54.208;19.128;2023-11-21T13:23:08;8.68;;;2.53;;
83139;SDS011;73027;54.208;19.128;2023-11-21T13:25:37;8.45;;;3.33;;
83139;SDS011;73027;54.208;19.128;2023-11-21T13:28:10;5.88;;;3.00;;
83139;SDS011;73027;54.208;19.128;2023-11-21T13:30:36;10.93;;;3.30;;
83139;SDS011;73027;54.208;19.128;2023-11-21T13:33:05;10.00;;;2.95;;
83139;SDS011;73027;54.208;19.128;2023-11-21T13:35:33;5.40;;;2.40;;
83139;SDS011;73027;54.208;19.128;2023-11-21T13:38:06;17.67;;;10.77;;
83139;SDS011;73027;54.208;19.128;2023-11-21T13:40:33;9.30;;;5.30;;
83139;SDS011;73027;54.208;19.128;2023-11-21T13:43:07;12.43;;;7.35;;
83139;SDS011;73027;54.208;19.128;2023-11-21T13:45:35;6.95;;;2.90;;
83139;SDS011;73027;54.208;19.128;2023-11-21T13:48:08;8.10;;;3.25;;
83139;SDS011;73027;54.208;19.128;2023-11-21T13:50:35;15.27;;;4.15;;
83139;SDS011;73027;54.208;19.128;2023-11-21T13:53:09;12.82;;;2.95;;
83139;SDS011;73027;54.208;19.128;2023-11-21T13:55:48;9.07;;;2.67;;
83139;SDS011;73027;54.208;19.128;2023-11-21T13:58:14;12.07;;;3.10;;
83139;SDS011;73027;54.208;19.128;2023-11-21T14:00:44;12.23;;;3.13;;
83139;SDS011;73027;54.208;19.128;2023-11-21T14:03:14;12.13;;;4.45;;
83139;SDS011;73027;54.208;19.128;2023-11-21T14:05:46;8.02;;;2.85;;
83139;SDS011;73027;54.208;19.128;2023-11-21T14:08:16;5.95;;;2.17;;
83139;SDS011;73027;54.208;19.128;2023-11-21T14:10:46;8.52;;;2.10;;
83139;SDS011;73027;54.208;19.128;2023-11-21T14:13:18;7.25;;;2.50;;
83139;SDS011;73027;54.208;19.128;2023-11-21T14:15:48;6.85;;;2.08;;
83139;SDS011;73027;54.208;19.128;2023-11-21T14:18:16;6.68;;;2.28;;
83139;SDS011;73027;54.208;19.128;2023-11-21T14:20:42;5.70;;;2.13;;
83139;SDS011;73027;54.208;19.128;2023-11-21T14:23:09;5.72;;;2.08;;
83139;SDS011;73027;54.208;19.128;2023-11-21T14:25:35;6.97;;;2.08;;
83139;SDS011;73027;54.208;19.128;2023-11-21T14:28:07;7.47;;;2.40;;
83139;SDS011;73027;54.208;19.128;2023-11-21T14:30:33;7.32;;;2.67;;
83139;SDS011;73027;54.208;19.128;2023-11-21T14:33:01;6.80;;;2.60;;
83139;SDS011;73027;54.208;19.128;2023-11-21T14:35:27;9.43;;;3.47;;
83139;SDS011;73027;54.208;19.128;2023-11-21T14:37:57;12.75;;;4.30;;
83139;SDS011;73027;54.208;19.128;2023-11-21T14:40:24;13.05;;;3.22;;
83139;SDS011;73027;54.208;19.128;2023-11-21T14:42:52;17.15;;;4.00;;
83139;SDS011;73027;54.208;19.128;2023-11-21T14:45:19;13.13;;;3.50;;
83139;SDS011;73027;54.208;19.128;2023-11-21T14:47:48;14.52;;;3.78;;
83139;SDS011;73027;54.208;19.128;2023-11-21T14:50:30;9.15;;;2.70;;
83139;SDS011;73027;54.208;19.128;2023-11-21T14:53:34;67.55;;;16.77;;
83139;SDS011;73027;54.208;19.128;2023-11-21T14:56:08;12.88;;;4.13;;